Flight Number: EUR1561 Duration: 6:00
Departure: Jeddah King Abdul Aziz (OEJN) at 00:00 Distance: 2544 Nm
Arrival: Gatwick Airport (EGKK) at 06:00 Equipment: B777

Weather Information
Jeddah King Abdul Aziz International Airport , Saudi Arabia (OEJN) 21-42N 039-11E 17M Jan 23, 2018 - 04:00 AM EST / 2018.01.23 0900 UTC
Wind: from the N (360 degrees) at 12 MPH (10 KT):0
Visibility: greater than 7 mile(s):0 Temperature: 82 F (28 C) Dew Point: 53 F (12 C) Relative Humidity: 37% Pressure (altimeter): 29.85 in. Hg (1011 hPa)
ob: OEJN 230900Z 36010KT CAVOK 28/12 Q1011 NOSIG cycle: 9
Sunrise: 04:06 Sunset: 15:04 (UTC)

London / Gatwick Airport, United Kingdom (EGKK) 51-09N 000-11W 0M Jan 23, 2018 - 04:50 AM EST / 2018.01.23 0950 UTC
Wind: from the SSW (200 degrees) at 12 MPH (10 KT):0
Visibility: 2 mile(s):0
Sky conditions: overcast Weather: drizzle; mist Temperature: 50 F (10 C) Dew Point: 48 F (9 C) Relative Humidity: 93% Pressure (altimeter): 30.00 in. Hg (1016 hPa)
ob: EGKK 230950Z 20010KT 3500 DZ BR OVC004 10/09 Q1016 cycle: 10
Sunrise: 07:53 Sunset: 16:31 (UTC)

TAF:2018/01/23 06:47 TAF EGKK 230500Z 2306/2412 21010KT 9999 SCT030 BECMG 2306/2308 BKN012 TEMPO 2307/2403 7000 -RA BKN008 PROB40 TEMPO 2307/2314 3000 RADZ BKN004 PROB30 TEMPO 2312/2324 24015G25KT PROB30 TEMPO 2314/2317 BKN018 PROB30 TEMPO 2317/2324 3000 RADZ BKN004 BECMG 2400/2403 20015G25KT TEMPO 2403/2412 20025G38KT 4000 RADZ BKN006

Previous Pireps for this route
Date Aircraft Flight time Fuel used Landing rate On time
2015-04-03B757-20007.2210Charter
2016-01-26B7775.32155672-391Yes
2016-05-15B7776.091367440Charter
(pireps marked green are flown by you)

Route map